Time;durP1;ratioP1;P1;durP2;ratioP2;P2;SDS_P1;SDS_P2;PMS_P1;PMS_P2;Temp;Humidity;BMP_temperature;BMP_pressure;BME280_temperature;BME280_humidity;BME280_pressure;Samples;Min_cycle;Max_cycle;Signal;HPM_P1;HPM_P2
2021/03/07 00:00:24;;;;;;;127.72;103.15;;;19.80;99.90;;;;;;4993112;28;20036;-44
2021/03/07 00:02:52;;;;;;;130.07;101.43;;;19.80;99.90;;;;;;4998269;28;20924;-44
2021/03/07 00:05:18;;;;;;;120.07;95.63;;;19.80;99.90;;;;;;5012786;28;20053;-45
2021/03/07 00:07:48;;;;;;;119.45;95.25;;;19.80;99.90;;;;;;5004041;28;20084;-45
2021/03/07 00:10:16;;;;;;;112.47;89.40;;;19.70;99.90;;;;;;4998299;28;20033;-44
2021/03/07 00:12:43;;;;;;;110.68;87.75;;;19.80;99.90;;;;;;5003811;28;20475;-36
2021/03/07 00:15:11;;;;;;;104.95;82.10;;;19.70;99.90;;;;;;5005520;28;20085;-35
2021/03/07 00:17:38;;;;;;;103.03;83.45;;;19.70;99.90;;;;;;5004332;28;20080;-35
2021/03/07 00:20:07;;;;;;;106.47;82.43;;;19.70;99.90;;;;;;5006114;28;20053;-35
2021/03/07 00:22:33;;;;;;;98.88;76.95;;;19.70;99.90;;;;;;5002590;28;20097;-35
2021/03/07 00:24:59;;;;;;;97.05;75.80;;;19.70;99.90;;;;;;5010388;28;20045;-44
2021/03/07 00:27:24;;;;;;;92.63;71.90;;;19.70;99.90;;;;;;5003111;28;20030;-35
2021/03/07 00:29:50;;;;;;;97.70;72.45;;;19.70;99.90;;;;;;4994471;28;20023;-36
2021/03/07 00:32:16;;;;;;;80.00;64.45;;;19.70;99.90;;;;;;4996287;28;20022;-35
2021/03/07 00:34:42;;;;;;;88.20;68.30;;;19.60;99.90;;;;;;5013942;28;20026;-35
2021/03/07 00:37:09;;;;;;;93.60;68.63;;;19.60;99.90;;;;;;5013070;28;20674;-36
2021/03/07 00:39:35;;;;;;;86.82;67.53;;;19.60;99.90;;;;;;4992779;28;20768;-36
2021/03/07 00:42:01;;;;;;;84.95;65.60;;;19.60;99.90;;;;;;4993272;28;20022;-36
2021/03/07 00:44:27;;;;;;;84.05;63.42;;;19.60;99.90;;;;;;5008889;28;20454;-35
2021/03/07 00:46:54;;;;;;;87.63;63.17;;;19.60;99.90;;;;;;5002369;28;20061;-36
2021/03/07 00:49:21;;;;;;;82.43;64.60;;;19.60;99.90;;;;;;5005621;28;20017;-36
2021/03/07 00:51:48;;;;;;;80.13;59.75;;;19.60;99.90;;;;;;5004832;28;20101;-43
2021/03/07 00:54:14;;;;;;;78.60;59.95;;;19.60;99.90;;;;;;5010142;28;20061;-44
2021/03/07 00:56:40;;;;;;;75.85;56.92;;;19.60;99.90;;;;;;5011871;28;20025;-44
2021/03/07 00:59:07;;;;;;;78.03;56.72;;;19.50;99.90;;;;;;5009277;28;20022;-45
2021/03/07 01:01:33;;;;;;;70.32;53.58;;;19.50;99.90;;;;;;5008567;28;20468;-45
2021/03/07 01:03:59;;;;;;;70.80;55.07;;;19.50;99.90;;;;;;5012526;28;20496;-45
2021/03/07 01:06:25;;;;;;;71.00;52.22;;;19.50;99.90;;;;;;5006714;28;20180;-36
2021/03/07 01:08:52;;;;;;;64.47;49.03;;;19.50;99.90;;;;;;5012577;28;20068;-36
2021/03/07 01:11:18;;;;;;;64.10;49.20;;;19.50;99.90;;;;;;5009753;28;20084;-36
2021/03/07 01:13:44;;;;;;;63.78;47.88;;;19.50;99.90;;;;;;5007033;28;20033;-36
2021/03/07 01:16:10;;;;;;;64.72;48.90;;;19.50;99.90;;;;;;5009409;28;20026;-36
2021/03/07 01:18:36;;;;;;;58.50;44.95;;;19.50;99.90;;;;;;5010410;28;20034;-36
2021/03/07 01:21:02;;;;;;;59.15;43.22;;;19.50;99.90;;;;;;5012019;28;20029;-36
2021/03/07 01:23:32;;;;;;;60.65;43.47;;;19.50;99.90;;;;;;5010378;28;20456;-36
2021/03/07 01:25:58;;;;;;;57.08;42.95;;;19.40;99.90;;;;;;5010345;28;20057;-36
2021/03/07 01:28:24;;;;;;;58.70;40.95;;;19.40;99.90;;;;;;4997843;28;20086;-37
2021/03/07 01:30:50;;;;;;;55.42;43.10;;;19.40;99.90;;;;;;4994826;28;20030;-36
2021/03/07 01:33:16;;;;;;;55.00;40.75;;;19.40;99.90;;;;;;4993715;28;20088;-36
2021/03/07 01:35:42;;;;;;;54.58;39.55;;;19.40;99.90;;;;;;4992424;28;20109;-37
2021/03/07 01:38:07;;;;;;;50.10;37.70;;;19.40;99.90;;;;;;4994057;28;20109;-36
2021/03/07 01:40:43;;;;;;;51.92;37.30;;;19.40;99.90;;;;;;4998820;28;20033;-36
2021/03/07 01:43:10;;;;;;;55.42;39.17;;;19.40;99.90;;;;;;4997079;28;20049;-36
2021/03/07 01:45:36;;;;;;;50.05;36.72;;;19.40;99.90;;;;;;5008899;28;20042;-36
2021/03/07 01:48:05;;;;;;;51.88;37.10;;;19.40;99.90;;;;;;5011574;28;20034;-36
2021/03/07 01:50:33;;;;;;;46.13;32.83;;;19.40;99.90;;;;;;5008458;28;20031;-36
2021/03/07 01:52:59;;;;;;;47.38;29.77;;;19.40;99.90;;;;;;5001951;28;20361;-36
2021/03/07 01:55:27;;;;;;;49.63;29.38;;;19.40;99.90;;;;;;5007235;28;20095;-36
2021/03/07 01:58:11;;;;;;;42.78;28.45;;;19.30;99.90;;;;;;5012459;28;20030;-36
2021/03/07 02:00:37;;;;;;;48.97;29.65;;;19.20;99.90;;;;;;5011091;28;20025;-36
2021/03/07 02:03:03;;;;;;;40.05;27.63;;;19.20;99.90;;;;;;4992968;28;20516;-36
2021/03/07 02:05:30;;;;;;;42.75;28.63;;;19.20;99.90;;;;;;4992958;28;20113;-36
2021/03/07 02:07:56;;;;;;;43.95;28.60;;;19.20;99.90;;;;;;5003439;28;20045;-36
2021/03/07 02:10:26;;;;;;;41.67;27.85;;;19.20;99.90;;;;;;5012064;28;20029;-36
2021/03/07 02:12:56;;;;;;;39.47;26.58;;;19.30;99.90;;;;;;5013122;28;20022;-36
2021/03/07 02:15:25;;;;;;;41.33;27.02;;;19.20;99.90;;;;;;4994516;28;20025;-36
2021/03/07 02:17:50;;;;;;;38.13;27.33;;;19.20;99.90;;;;;;4993266;28;20473;-36
2021/03/07 02:20:20;;;;;;;38.10;26.25;;;19.20;99.90;;;;;;4993330;28;20037;-36
2021/03/07 02:22:58;;;;;;;41.20;25.80;;;19.20;99.90;;;;;;5003845;28;20034;-36
2021/03/07 02:25:25;;;;;;;40.60;24.73;;;19.20;99.90;;;;;;4993142;28;20029;-36
2021/03/07 02:27:52;;;;;;;40.40;26.58;;;19.20;99.90;;;;;;4995480;28;20380;-37
2021/03/07 02:30:19;;;;;;;38.92;24.92;;;19.20;99.90;;;;;;5006006;28;20084;-36
2021/03/07 02:32:52;;;;;;;33.13;24.92;;;19.20;99.90;;;;;;5014821;28;20026;-36
2021/03/07 02:35:22;;;;;;;38.63;24.02;;;19.20;99.90;;;;;;5015240;28;20030;-36
2021/03/07 02:37:53;;;;;;;37.20;23.55;;;19.20;99.90;;;;;;5016355;28;20026;-36
2021/03/07 02:40:23;;;;;;;35.95;23.35;;;19.20;99.90;;;;;;5003979;28;20113;-36
2021/03/07 02:42:49;;;;;;;36.25;23.63;;;19.20;99.90;;;;;;5004603;28;20026;-37
2021/03/07 02:45:20;;;;;;;38.28;23.33;;;19.20;99.90;;;;;;5013324;28;20148;-37
2021/03/07 02:47:49;;;;;;;36.85;23.75;;;19.20;99.90;;;;;;4996314;28;20053;-37
2021/03/07 02:50:19;;;;;;;37.13;23.70;;;19.20;99.90;;;;;;5013109;28;20034;-37
2021/03/07 02:52:56;;;;;;;32.72;22.73;;;19.20;99.90;;;;;;5005846;28;20485;-36
2021/03/07 02:55:29;;;;;;;35.75;21.52;;;19.20;99.90;;;;;;5004585;28;20021;-36
2021/03/07 02:57:56;;;;;;;33.88;21.50;;;19.20;99.90;;;;;;5015943;28;20030;-36
2021/03/07 03:00:22;;;;;;;37.83;22.02;;;19.20;99.90;;;;;;5000264;28;20034;-37
2021/03/07 03:02:49;;;;;;;38.53;22.63;;;19.20;99.90;;;;;;5013483;28;20040;-36
2021/03/07 03:05:16;;;;;;;35.93;19.93;;;19.10;99.90;;;;;;5012321;28;20151;-36
2021/03/07 03:07:43;;;;;;;35.92;19.65;;;19.20;99.90;;;;;;5014817;28;20296;-36
2021/03/07 03:10:11;;;;;;;30.38;19.58;;;19.20;99.90;;;;;;5015576;28;20021;-37
2021/03/07 03:12:37;;;;;;;;;;;19.10;99.90;;;;;;5015754;28;20026;-36
2021/03/07 03:15:06;;;;;;;32.75;19.13;;;19.20;99.90;;;;;;5015200;28;19993;-37
2021/03/07 03:17:32;;;;;;;30.25;20.42;;;19.20;99.90;;;;;;5004631;28;20034;-36
2021/03/07 03:19:59;;;;;;;35.15;20.00;;;19.10;99.90;;;;;;5002266;28;20506;-36
2021/03/07 03:22:25;;;;;;;32.25;19.90;;;19.10;99.90;;;;;;4999737;28;20042;-36
2021/03/07 03:24:51;;;;;;;31.52;17.95;;;19.10;99.90;;;;;;5006828;28;20385;-36
2021/03/07 03:27:17;;;;;;;28.75;17.35;;;19.10;99.90;;;;;;4995842;28;20465;-36
2021/03/07 03:29:42;;;;;;;29.58;18.30;;;19.10;99.90;;;;;;4997291;28;20030;-36
2021/03/07 03:32:09;;;;;;;30.20;18.42;;;19.10;99.90;;;;;;5015419;28;20785;-36
2021/03/07 03:34:36;;;;;;;30.23;16.90;;;19.10;99.90;;;;;;4995558;28;20782;-43
2021/03/07 03:37:04;;;;;;;30.95;19.42;;;19.10;99.90;;;;;;4994948;28;20038;-47
2021/03/07 03:39:30;;;;;;;33.42;18.38;;;19.10;99.90;;;;;;5009091;28;20032;-47
2021/03/07 03:42:04;;;;;;;29.90;16.40;;;19.10;99.90;;;;;;4999762;28;20030;-47
2021/03/07 03:44:34;;;;;;;29.83;17.13;;;19.10;99.90;;;;;;4994683;28;20042;-47
2021/03/07 03:47:03;;;;;;;28.50;17.45;;;19.10;99.90;;;;;;5009831;28;20107;-47
2021/03/07 03:49:54;;;;;;;26.90;16.45;;;19.10;99.90;;;;;;5012282;28;20026;-47
2021/03/07 03:52:24;;;;;;;29.15;15.43;;;19.10;99.90;;;;;;5000445;28;20444;-47
2021/03/07 03:55:00;;;;;;;28.92;17.23;;;19.10;99.90;;;;;;5014039;28;20349;-48
2021/03/07 03:57:29;;;;;;;30.90;16.65;;;19.00;99.90;;;;;;5013689;28;20419;-48
2021/03/07 03:59:57;;;;;;;28.40;18.17;;;19.00;99.90;;;;;;4994105;28;20118;-47
2021/03/07 04:02:26;;;;;;;;;;;19.00;99.90;;;;;;5026815;28;20053;-47
2021/03/07 04:05:01;;;;;;;28.55;15.88;;;19.10;99.90;;;;;;5013477;28;19996;-47
2021/03/07 04:07:28;;;;;;;25.20;16.58;;;19.00;99.90;;;;;;4996031;28;20042;-47
2021/03/07 04:09:54;;;;;;;25.60;15.38;;;19.00;99.90;;;;;;4994046;28;20484;-47
2021/03/07 04:12:22;;;;;;;23.77;14.95;;;19.10;99.90;;;;;;4994785;28;20058;-47
2021/03/07 04:14:49;;;;;;;28.92;16.73;;;19.00;99.90;;;;;;4993321;28;20034;-47
2021/03/07 04:17:18;;;;;;;30.67;16.95;;;19.00;99.90;;;;;;4995791;28;20034;-47
2021/03/07 04:19:46;;;;;;;29.38;16.08;;;19.00;99.90;;;;;;5005198;28;20026;-47
2021/03/07 04:22:13;;;;;;;25.13;15.52;;;19.00;99.90;;;;;;5005603;28;20084;-47
2021/03/07 04:24:40;;;;;;;25.70;14.80;;;19.00;99.90;;;;;;5012836;28;20488;-48
2021/03/07 04:27:07;;;;;;;25.92;16.00;;;19.00;99.90;;;;;;5013270;28;20029;-47
2021/03/07 04:29:34;;;;;;;27.65;16.30;;;19.00;99.90;;;;;;5013170;28;20033;-47
2021/03/07 04:32:01;;;;;;;24.90;15.27;;;19.00;99.90;;;;;;5004786;28;20034;-47
2021/03/07 04:34:28;;;;;;;26.58;16.10;;;19.00;99.90;;;;;;4993629;28;20260;-47
2021/03/07 04:36:54;;;;;;;26.58;14.93;;;19.00;99.90;;;;;;5007809;28;20673;-47
2021/03/07 04:39:21;;;;;;;23.45;14.77;;;19.00;99.90;;;;;;5000583;28;20079;-47
2021/03/07 04:41:46;;;;;;;27.77;15.63;;;19.00;99.90;;;;;;4993925;28;20421;-47
2021/03/07 04:44:13;;;;;;;23.70;13.88;;;19.00;99.90;;;;;;5003712;28;20026;-47
2021/03/07 04:46:38;;;;;;;22.58;14.85;;;19.00;99.90;;;;;;4993492;28;20018;-47
2021/03/07 04:49:04;;;;;;;27.45;15.70;;;19.00;99.90;;;;;;5001272;28;20380;-47
2021/03/07 04:51:31;;;;;;;23.42;14.52;;;19.00;99.90;;;;;;5004080;28;20026;-47
2021/03/07 04:53:56;;;;;;;29.77;16.27;;;19.00;99.90;;;;;;5006369;28;20025;-39
2021/03/07 04:56:26;;;;;;;26.65;15.25;;;19.00;99.90;;;;;;5010075;28;20026;-39
2021/03/07 04:58:53;;;;;;;23.50;15.63;;;19.00;99.90;;;;;;5007607;28;20046;-39
2021/03/07 05:01:18;;;;;;;24.05;14.65;;;19.00;99.90;;;;;;4995332;28;20039;-39
2021/03/07 05:03:44;;;;;;;25.10;13.75;;;19.00;99.90;;;;;;4995239;28;20049;-39
2021/03/07 05:06:13;;;;;;;26.75;14.75;;;19.00;99.90;;;;;;4994974;28;20125;-39
2021/03/07 05:08:40;;;;;;;25.60;15.20;;;19.00;99.90;;;;;;4999500;28;20025;-39
2021/03/07 05:11:05;;;;;;;28.90;15.32;;;19.00;99.90;;;;;;5013653;28;20026;-39
2021/03/07 05:13:31;;;;;;;25.33;13.80;;;19.00;99.90;;;;;;5004482;28;20024;-39
2021/03/07 05:15:57;;;;;;;28.33;15.27;;;19.00;99.90;;;;;;4994322;28;20106;-39
2021/03/07 05:18:23;;;;;;;24.20;13.65;;;19.00;99.90;;;;;;5000968;28;20040;-39
2021/03/07 05:20:49;;;;;;;22.90;14.45;;;18.90;99.90;;;;;;5009176;28;20030;-39
2021/03/07 05:23:15;;;;;;;28.33;14.60;;;19.00;99.90;;;;;;4993884;28;20535;-38
2021/03/07 05:25:41;;;;;;;24.83;15.10;;;19.00;99.90;;;;;;4996027;28;20034;-38
2021/03/07 05:28:07;;;;;;;25.98;14.65;;;18.90;99.90;;;;;;5013455;28;20445;-38
2021/03/07 05:30:36;;;;;;;24.40;14.10;;;18.90;99.90;;;;;;5012828;28;20368;-38
2021/03/07 05:33:02;;;;;;;27.73;13.63;;;18.90;99.90;;;;;;4993743;28;20041;-37
2021/03/07 05:35:28;;;;;;;22.90;14.88;;;18.90;99.90;;;;;;5001482;28;20030;-37
2021/03/07 05:37:54;;;;;;;25.52;15.95;;;18.90;99.90;;;;;;5013476;28;20029;-38
2021/03/07 05:40:20;;;;;;;23.92;14.50;;;18.90;99.90;;;;;;4995732;28;20029;-38
2021/03/07 05:42:46;;;;;;;21.60;13.68;;;18.90;99.90;;;;;;5009047;28;20037;-38
2021/03/07 05:45:13;;;;;;;24.13;13.82;;;18.90;99.90;;;;;;5013292;28;20030;-37
2021/03/07 05:47:40;;;;;;;25.88;15.05;;;18.90;99.90;;;;;;4998492;28;20034;-38
2021/03/07 05:50:06;;;;;;;24.67;13.43;;;18.90;99.90;;;;;;4993651;28;20373;-38
2021/03/07 05:52:33;;;;;;;27.23;14.93;;;18.90;99.90;;;;;;5000104;28;20160;-38
2021/03/07 05:55:00;;;;;;;30.52;19.98;;;18.90;99.90;;;;;;5003036;28;20026;-37
2021/03/07 05:57:26;;;;;;;33.38;18.95;;;18.90;99.90;;;;;;5012536;28;20507;-38
2021/03/07 05:59:53;;;;;;;37.55;21.48;;;18.90;99.90;;;;;;5012557;28;20177;-38
2021/03/07 06:02:19;;;;;;;39.90;26.10;;;18.80;99.90;;;;;;5013829;28;20091;-38
2021/03/07 06:04:51;;;;;;;54.40;36.03;;;18.80;99.90;;;;;;5007288;28;20038;-38
2021/03/07 06:07:17;;;;;;;49.78;35.40;;;18.80;99.90;;;;;;5003303;28;20026;-38
2021/03/07 06:09:43;;;;;;;56.33;34.97;;;18.80;99.90;;;;;;5006934;28;20027;-38
2021/03/07 06:12:16;;;;;;;44.53;33.20;;;18.70;99.90;;;;;;5006284;28;20101;-38
2021/03/07 06:14:44;;;;;;;51.03;32.30;;;18.80;99.90;;;;;;5004499;28;20498;-39
2021/03/07 06:17:12;;;;;;;44.45;31.33;;;18.70;99.90;;;;;;5006973;28;20468;-38
2021/03/07 06:19:55;;;;;;;42.97;30.95;;;18.70;99.90;;;;;;5003607;28;20029;-39
2021/03/07 06:22:21;;;;;;;39.72;24.05;;;18.70;99.90;;;;;;5005365;28;20022;-39
2021/03/07 06:24:47;;;;;;;162.80;126.47;;;18.80;99.90;;;;;;5016158;28;20037;-39
2021/03/07 06:27:18;;;;;;;81.57;61.88;;;18.70;99.90;;;;;;5011347;28;20038;-39
2021/03/07 06:30:30;;;;;;;99.63;71.28;;;18.70;99.90;;;;;;5005452;28;20368;-39
2021/03/07 06:32:58;;;;;;;75.80;57.95;;;18.70;99.90;;;;;;4975045;28;20150;-40
2021/03/07 06:35:27;;;;;;;70.38;48.25;;;18.70;99.90;;;;;;4958252;28;20031;-38
2021/03/07 06:38:03;;;;;;;128.73;99.10;;;18.70;99.90;;;;;;4975218;28;20114;-39
2021/03/07 06:40:41;;;;;;;111.25;84.95;;;18.60;99.90;;;;;;4958863;28;20042;-39
2021/03/07 06:43:21;;;;;;;106.40;77.03;;;18.70;99.90;;;;;;4975150;28;20117;-39
2021/03/07 06:45:47;;;;;;;92.75;65.75;;;18.70;99.90;;;;;;4974757;28;20077;-39
2021/03/07 06:48:13;;;;;;;79.30;57.97;;;18.70;99.90;;;;;;4973828;28;20047;-39
2021/03/07 06:50:52;;;;;;;73.35;54.05;;;18.70;99.90;;;;;;4975032;28;20069;-39
2021/03/07 06:53:41;;;;;;;65.57;48.17;;;18.70;99.90;;;;;;4974704;28;20034;-39
2021/03/07 06:56:07;;;;;;;59.65;40.35;;;18.70;99.90;;;;;;4975062;28;20088;-39
2021/03/07 06:58:33;;;;;;;58.35;41.67;;;18.70;99.90;;;;;;4958329;28;20058;-39
2021/03/07 07:01:00;;;;;;;53.97;38.47;;;18.70;99.90;;;;;;4973960;28;20137;-39
2021/03/07 07:03:31;;;;;;;47.40;34.13;;;18.70;99.90;;;;;;4977224;28;20042;-39
2021/03/07 07:05:57;;;;;;;44.45;30.80;;;18.70;99.90;;;;;;4979935;28;20061;-40
2021/03/07 07:08:45;;;;;;;229.70;166.73;;;18.70;99.90;;;;;;5016619;28;20030;-40
2021/03/07 07:11:12;;;;;;;149.00;112.88;;;18.70;99.90;;;;;;5003801;28;20014;-39
2021/03/07 07:13:44;;;;;;;130.67;95.70;;;18.60;99.90;;;;;;5007672;28;20022;-39
2021/03/07 07:16:11;;;;;;;124.43;93.95;;;18.60;99.90;;;;;;5008763;28;20029;-40
2021/03/07 07:18:39;;;;;;;110.95;85.63;;;18.70;99.90;;;;;;5000576;28;20027;-38
2021/03/07 07:21:08;;;;;;;288.33;227.43;;;18.60;99.90;;;;;;5002425;28;20030;-40
2021/03/07 07:23:34;;;;;;;183.98;138.35;;;18.70;99.90;;;;;;4999256;28;20021;-40
2021/03/07 07:26:01;;;;;;;158.18;120.63;;;18.70;99.90;;;;;;5014779;28;20033;-40
2021/03/07 07:28:27;;;;;;;132.13;100.40;;;18.70;99.90;;;;;;4998177;28;20108;-40
2021/03/07 07:31:12;;;;;;;122.80;90.70;;;18.70;99.90;;;;;;5009096;28;20026;-40
2021/03/07 07:33:48;;;;;;;102.03;76.32;;;18.70;99.90;;;;;;5015204;28;20113;-40
2021/03/07 07:36:45;;;;;;;81.30;62.85;;;18.70;99.90;;;;;;4998762;28;20091;-40
2021/03/07 07:39:14;;;;;;;76.72;54.53;;;18.70;99.90;;;;;;5014059;28;20034;-40
2021/03/07 07:41:41;;;;;;;70.05;50.22;;;18.70;99.90;;;;;;5014345;28;20026;-40
2021/03/07 07:44:27;;;;;;;71.20;47.50;;;18.70;99.90;;;;;;5012132;28;20022;-40
2021/03/07 07:47:20;;;;;;;50.33;37.50;;;18.70;99.90;;;;;;5021164;28;20025;-40
2021/03/07 07:49:51;;;;;;;54.42;36.53;;;18.70;99.90;;;;;;5002820;28;20050;-40
2021/03/07 07:52:27;;;;;;;45.35;31.83;;;18.80;99.90;;;;;;5006206;28;20019;-40
2021/03/07 07:55:15;;;;;;;47.42;25.95;;;18.80;99.90;;;;;;5002358;28;20088;-40
2021/03/07 07:57:45;;;;;;;33.47;23.38;;;18.80;99.90;;;;;;4997256;28;20037;-40
2021/03/07 08:00:17;;;;;;;34.17;22.25;;;18.80;99.90;;;;;;5010723;28;20087;-40
2021/03/07 08:02:45;;;;;;;38.85;23.25;;;18.80;99.90;;;;;;5004377;28;20495;-40
2021/03/07 08:05:38;;;;;;;32.00;18.98;;;18.80;99.90;;;;;;5000020;28;20069;-38
2021/03/07 08:08:12;;;;;;;31.00;17.75;;;18.80;99.90;;;;;;4994822;28;20530;-40
2021/03/07 08:10:40;;;;;;;29.25;16.67;;;18.80;99.90;;;;;;5014277;28;20014;-40
2021/03/07 08:13:09;;;;;;;24.52;14.35;;;18.90;99.90;;;;;;5009173;28;20025;-41
2021/03/07 08:15:49;;;;;;;22.58;13.13;;;18.90;99.90;;;;;;5012305;28;20349;-41
2021/03/07 08:18:17;;;;;;;23.95;13.05;;;18.90;99.90;;;;;;4996075;28;20037;-41
2021/03/07 08:20:44;;;;;;;24.33;13.40;;;18.90;99.90;;;;;;5005267;28;20368;-38
2021/03/07 08:23:22;;;;;;;21.42;12.68;;;18.90;99.90;;;;;;4994472;28;20033;-41
2021/03/07 08:25:51;;;;;;;;;;;18.90;99.90;;;;;;5001620;28;20025;-41
2021/03/07 08:28:29;;;;;;;21.05;10.90;;;19.00;99.90;;;;;;4995084;28;19914;-41
2021/03/07 08:31:00;;;;;;;21.70;11.48;;;19.00;99.90;;;;;;4999779;28;20057;-39
2021/03/07 08:33:37;;;;;;;19.27;11.30;;;19.00;99.90;;;;;;5013605;28;20025;-38
2021/03/07 08:36:18;;;;;;;26.10;11.93;;;19.00;99.90;;;;;;5007450;28;20019;-38
2021/03/07 08:38:52;;;;;;;21.45;11.45;;;19.00;99.90;;;;;;5006861;28;20029;-39
2021/03/07 08:41:24;;;;;;;25.58;11.38;;;19.10;99.90;;;;;;5007643;28;20049;-38
2021/03/07 08:43:56;;;;;;;36.03;18.88;;;19.10;99.90;;;;;;4995277;28;20373;-38
2021/03/07 08:46:27;;;;;;;61.65;42.05;;;19.10;99.90;;;;;;5003032;28;20054;-38
2021/03/07 08:49:16;;;;;;;46.42;26.73;;;19.20;99.90;;;;;;5009984;28;20038;-41
2021/03/07 08:51:45;;;;;;;38.42;24.58;;;19.10;99.90;;;;;;4996214;28;20038;-40
2021/03/07 08:54:20;;;;;;;34.90;18.23;;;19.20;99.90;;;;;;5003579;28;20049;-40
2021/03/07 08:56:46;;;;;;;42.22;18.90;;;19.20;99.90;;;;;;5012288;28;20054;-38
2021/03/07 08:59:12;;;;;;;37.60;17.48;;;19.20;99.90;;;;;;4993987;28;20034;-38
2021/03/07 09:01:39;;;;;;;35.03;16.70;;;19.20;99.90;;;;;;5004433;28;20442;-39
2021/03/07 09:04:08;;;;;;;30.23;11.50;;;19.20;99.90;;;;;;5012330;28;20399;-50
2021/03/07 09:06:42;;;;;;;77.68;54.22;;;19.30;99.90;;;;;;5013878;28;20041;-45
2021/03/07 09:09:12;;;;;;;47.15;32.00;;;19.40;99.90;;;;;;5020896;28;20388;-46
2021/03/07 09:11:47;;;;;;;60.45;39.80;;;19.30;99.90;;;;;;5018633;28;20141;-46
2021/03/07 09:14:13;;;;;;;38.55;21.52;;;19.30;99.90;;;;;;5028547;28;20371;-46
2021/03/07 09:16:48;;;;;;;32.58;19.10;;;19.20;99.90;;;;;;5012515;28;20116;-46
2021/03/07 09:19:25;;;;;;;30.20;16.15;;;19.30;99.90;;;;;;5012306;28;20033;-46
2021/03/07 09:22:19;;;;;;;56.97;38.95;;;19.20;99.90;;;;;;5025841;28;20033;-44
2021/03/07 09:24:56;;;;;;;60.92;39.15;;;19.30;99.90;;;;;;5016127;28;20029;-47
2021/03/07 09:27:26;;;;;;;36.73;21.70;;;19.20;99.90;;;;;;4999868;28;20025;-44
2021/03/07 09:30:02;;;;;;;25.95;14.07;;;19.30;99.90;;;;;;5006097;28;20391;-44
2021/03/07 09:32:50;;;;;;;20.48;10.43;;;19.20;99.90;;;;;;4997049;28;20420;-45
2021/03/07 09:35:16;;;;;;;28.30;13.50;;;19.20;99.90;;;;;;5001526;28;20049;-46
2021/03/07 09:37:42;;;;;;;23.65;14.10;;;19.20;99.90;;;;;;5013622;28;20128;-46
2021/03/07 09:40:14;;;;;;;19.38;11.00;;;19.20;99.90;;;;;;5009986;28;20038;-46
2021/03/07 09:42:41;;;;;;;43.53;24.88;;;19.20;99.90;;;;;;5026405;28;20033;-47
2021/03/07 09:45:11;;;;;;;40.13;21.23;;;19.20;99.90;;;;;;5014901;28;20026;-46
2021/03/07 09:47:38;;;;;;;31.27;15.38;;;19.30;99.90;;;;;;5018471;28;20040;-49
2021/03/07 09:50:05;;;;;;;26.23;13.00;;;19.30;99.90;;;;;;5026170;28;20106;-46
2021/03/07 09:52:31;;;;;;;30.10;20.10;;;19.20;99.90;;;;;;5029583;28;20345;-46
2021/03/07 09:54:57;;;;;;;29.92;13.75;;;19.30;99.90;;;;;;5019271;28;20024;-46
2021/03/07 09:57:23;;;;;;;23.35;11.32;;;19.20;99.90;;;;;;5031500;28;20104;-48
2021/03/07 09:59:52;;;;;;;19.25;10.15;;;19.20;99.90;;;;;;5020874;28;20357;-47
2021/03/07 10:02:18;;;;;;;20.08;10.93;;;19.20;99.90;;;;;;5018565;28;20332;-47
2021/03/07 10:04:50;;;;;;;25.55;11.77;;;19.20;99.90;;;;;;5011837;28;20421;-46
2021/03/07 10:07:18;;;;;;;13.75;8.70;;;19.20;99.90;;;;;;5010845;28;20109;-47
2021/03/07 10:10:02;;;;;;;26.15;12.30;;;19.20;99.90;;;;;;5007140;28;20029;-48
2021/03/07 10:13:00;;;;;;;22.58;13.40;;;19.30;99.90;;;;;;4996210;28;20033;-47
2021/03/07 10:15:34;;;;;;;20.50;10.50;;;19.30;99.90;;;;;;4969839;28;20035;-47
2021/03/07 10:18:01;;;;;;;15.32;8.00;;;19.30;99.90;;;;;;4962118;28;20039;-48
2021/03/07 10:20:38;;;;;;;20.13;9.68;;;19.40;99.90;;;;;;4968945;28;20043;-47
2021/03/07 10:23:04;;;;;;;14.50;7.88;;;19.40;99.90;;;;;;4973508;28;20038;-47
2021/03/07 10:25:33;;;;;;;20.40;7.95;;;19.40;99.90;;;;;;4968966;28;20049;-47
2021/03/07 10:28:06;;;;;;;18.33;7.20;;;19.50;99.90;;;;;;4964438;28;20046;-46
2021/03/07 10:30:38;;;;;;;15.30;5.93;;;19.40;99.90;;;;;;4973524;28;20027;-48
2021/03/07 10:33:24;;;;;;;20.17;7.38;;;19.40;99.90;;;;;;4968295;28;20102;-46
2021/03/07 10:36:17;;;;;;;19.48;6.97;;;19.40;99.90;;;;;;4939257;28;20365;-46
2021/03/07 10:38:48;;;;;;;17.65;6.40;;;19.50;99.90;;;;;;4963411;28;20131;-45
2021/03/07 10:41:21;;;;;;;14.75;6.35;;;19.50;99.90;;;;;;4973612;28;20039;-47
2021/03/07 10:43:55;;;;;;;17.45;7.78;;;19.50;99.90;;;;;;4955941;28;20126;-47
2021/03/07 10:46:32;;;;;;;28.02;20.70;;;19.60;99.90;;;;;;4969979;28;20042;-46
2021/03/07 10:49:01;;;;;;;18.38;12.10;;;19.60;99.90;;;;;;4953505;28;20084;-46
2021/03/07 10:51:28;;;;;;;32.70;14.13;;;19.60;99.90;;;;;;4997492;28;20034;-46
2021/03/07 10:53:54;;;;;;;11.07;5.95;;;19.60;99.90;;;;;;4994806;28;20077;-46
2021/03/07 10:56:20;;;;;;;18.00;6.35;;;19.60;99.90;;;;;;5000028;28;20057;-47
2021/03/07 10:58:47;;;;;;;12.98;5.18;;;19.60;99.90;;;;;;5014447;28;20049;-47
2021/03/07 11:01:16;;;;;;;12.48;5.90;;;19.60;99.90;;;;;;4994647;28;20031;-47
2021/03/07 11:03:43;;;;;;;19.83;12.43;;;19.60;99.90;;;;;;5001373;28;20461;-48
2021/03/07 11:06:09;;;;;;;36.53;23.92;;;19.70;99.90;;;;;;5014207;28;20081;-44
2021/03/07 11:08:36;;;;;;;17.90;11.20;;;19.80;99.90;;;;;;5014358;28;20041;-48
2021/03/07 11:11:03;;;;;;;12.90;6.97;;;19.70;99.90;;;;;;5014412;28;20045;-45
2021/03/07 11:13:29;;;;;;;11.27;6.10;;;19.80;99.90;;;;;;5012826;28;20065;-46
2021/03/07 11:15:55;;;;;;;62.33;47.50;;;19.90;99.90;;;;;;5014138;28;20032;-46
2021/03/07 11:18:21;;;;;;;42.88;33.53;;;19.90;99.90;;;;;;5014263;28;20049;-47
2021/03/07 11:20:47;;;;;;;39.30;25.85;;;20.00;99.90;;;;;;5014302;28;20769;-45
2021/03/07 11:23:13;;;;;;;14.60;7.85;;;20.10;99.90;;;;;;5013963;28;20049;-44
2021/03/07 11:25:39;;;;;;;11.13;6.20;;;20.20;99.90;;;;;;5011005;28;20117;-44
2021/03/07 11:28:05;;;;;;;14.00;5.60;;;20.20;99.90;;;;;;5013794;28;20164;-44
2021/03/07 11:30:31;;;;;;;19.55;10.18;;;20.20;99.90;;;;;;5014052;28;20071;-47
2021/03/07 11:32:57;;;;;;;15.05;5.13;;;20.30;99.90;;;;;;5012081;28;20030;-48
2021/03/07 11:35:23;;;;;;;8.10;5.30;;;20.20;99.90;;;;;;5013694;28;20022;-45
2021/03/07 11:37:52;;;;;;;13.50;5.38;;;20.20;99.90;;;;;;5013732;28;20032;-48
2021/03/07 11:40:19;;;;;;;10.98;8.00;;;20.20;99.90;;;;;;5013274;28;20029;-48
2021/03/07 11:42:44;;;;;;;13.68;7.00;;;20.20;99.90;;;;;;5013753;28;20025;-48
2021/03/07 11:45:11;;;;;;;13.05;7.10;;;20.20;99.90;;;;;;5013606;28;20137;-45
2021/03/07 11:47:37;;;;;;;12.07;7.13;;;20.10;99.90;;;;;;5014093;28;20068;-46
2021/03/07 11:50:07;;;;;;;13.27;6.63;;;20.10;99.90;;;;;;5013893;28;20049;-46
2021/03/07 11:52:33;;;;;;;10.10;6.38;;;20.20;99.90;;;;;;5014070;28;20097;-46
2021/03/07 11:54:59;;;;;;;12.32;6.60;;;20.30;99.90;;;;;;5013862;28;20114;-46
2021/03/07 11:57:25;;;;;;;12.77;7.10;;;20.30;99.90;;;;;;5012688;28;20029;-46
2021/03/07 11:59:51;;;;;;;13.07;7.22;;;20.30;99.90;;;;;;5012858;28;20379;-46
2021/03/07 12:02:17;;;;;;;11.82;7.05;;;20.40;99.90;;;;;;5013971;28;20041;-46
2021/03/07 12:04:43;;;;;;;13.00;6.30;;;20.40;99.90;;;;;;5013863;28;20368;-46
2021/03/07 12:07:09;;;;;;;11.02;6.50;;;20.40;99.90;;;;;;5013678;28;20108;-46
2021/03/07 12:09:34;;;;;;;10.93;5.75;;;20.50;99.90;;;;;;5013183;28;20472;-46
2021/03/07 12:12:01;;;;;;;12.82;6.20;;;20.50;99.90;;;;;;5013099;28;20022;-46
2021/03/07 12:14:27;;;;;;;9.93;7.10;;;20.50;99.90;;;;;;5013269;28;20400;-45
2021/03/07 12:16:56;;;;;;;22.42;15.02;;;20.50;99.90;;;;;;5013359;28;20022;-45
2021/03/07 12:19:22;;;;;;;48.83;37.47;;;20.50;99.90;;;;;;5013225;28;20401;-46
2021/03/07 12:21:48;;;;;;;38.97;26.73;;;20.40;99.90;;;;;;5013189;28;20026;-45
2021/03/07 12:24:14;;;;;;;31.27;24.15;;;20.40;99.90;;;;;;5013368;28;20022;-45
2021/03/07 12:26:40;;;;;;;30.58;21.58;;;20.30;99.90;;;;;;5013431;28;20469;-45
2021/03/07 12:29:06;;;;;;;20.63;14.32;;;20.30;99.90;;;;;;5011992;28;20026;-47
2021/03/07 12:31:32;;;;;;;23.17;15.98;;;20.30;99.90;;;;;;5011968;28;20034;-47
2021/03/07 12:33:58;;;;;;;18.60;13.95;;;20.30;99.90;;;;;;5013164;28;20025;-45
2021/03/07 12:36:24;;;;;;;11.63;7.45;;;20.30;99.90;;;;;;5013085;28;20018;-45
2021/03/07 12:38:50;;;;;;;12.77;8.40;;;20.30;99.90;;;;;;5013174;28;20107;-47